Flight Track Log - Related Links

Times and Time Zones

All times are in EDT time to prevent confusion due to time zone crossing. See the PDT4180 flight status page for this flight to view local times or setup timezone preferences in your user account.

Time Position Orientation Groundspeed Altitude Reporting Facility
EDT Latitude Longitude Course Direction KTS MPH feet Rate Location/Type
Wed 08:05:09 PM 35.1997 -80.9303 85° East 122 140 1,500  Level FAA TRACON SMA TRACON (SMA)
Wed 08:09:09 PM 35.2178 -80.6881 57° Northeast 217 250 4,400 688 Climbing FAA TRACON SMA TRACON (SMA)
Wed 08:09:48 PM 35.2381 -80.6494 67° East 219 252 4,700 525 Climbing FAA TRACON SMA TRACON (SMA)
Wed 08:10:29 PM 35.2550 -80.6017 63° Northeast 221 254 5,100 593 Climbing FAA TRACON SMA TRACON (SMA)
Wed 08:11:09 PM 35.2747 -80.5550 53° Northeast 222 255 5,500 600 Climbing FAA TRACON SMA TRACON (SMA)
Wed 08:11:49 PM 35.2981 -80.5169 58° Northeast 226 260 5,900 600 Climbing FAA TRACON SMA TRACON (SMA)
Wed 08:12:29 PM 35.3217 -80.4711 62° Northeast 229 264 6,300 608 Climbing FAA TRACON SMA TRACON (SMA)
Wed 08:13:08 PM 35.3419 -80.4239 69° East 227 261 6,700 600 Climbing FAA TRACON SMA TRACON (SMA)
Wed 08:13:49 PM 35.3581 -80.3728 70° East 230 265 7,100 519 Climbing FAA TRACON SMA TRACON (SMA)
Wed 08:14:29 PM 35.3719 -80.3267 68° East 232 267 7,400 525 Climbing FAA TRACON SMA TRACON (SMA)
Wed 08:15:09 PM 35.3892 -80.2756 64° Northeast 233 268 7,800 600 Climbing FAA TRACON SMA TRACON (SMA)
Wed 08:15:49 PM 35.4092 -80.2253 64° Northeast 235 270 8,200 519 Climbing FAA TRACON SMA TRACON (SMA)
Wed 08:16:30 PM 35.4272 -80.1803 68° East 236 272 8,500 525 Climbing FAA TRACON SMA TRACON (SMA)
Wed 08:17:09 PM 35.4439 -80.1283 54° Northeast 236 272 8,900 450 Climbing FAA TRACON SMA TRACON (SMA)
Wed 08:17:50 PM 35.4703 -80.0839 22° Northeast 242 278 9,100 150 Climbing FAA TRACON SMA TRACON (SMA)
Wed 08:18:29 PM 35.5108 -80.0636 19° North 251 289 9,100  Level FAA TRACON SMA TRACON (SMA)
Wed 08:19:09 PM 35.5564 -80.0444 24° Northeast 252 290 9,100  Level FAA TRACON SMA TRACON (SMA)
Wed 08:19:49 PM 35.6008 -80.0206 27° Northeast 252 290 9,100  Level FAA TRACON SMA TRACON (SMA)
Wed 08:20:29 PM 35.6397 -79.9958 28° Northeast 246 283 9,100  Level FAA TRACON SMA TRACON (SMA)
Wed 08:21:10 PM 35.6611 -79.9817 25° Northeast 246 283 9,100  Level FAA TRACON SMA TRACON (SMA)
Wed 08:27:04 PM 36.0417 -79.7586 26° Northeast 238 274 9,100 -10 Level Washington Center
Wed 08:31:04 PM 36.2847 -79.6144 29° Northeast 240 276 9,000 -20 Descending Washington Center
Wed 08:32:02 PM 36.3444 -79.5736 24° Northeast 240 276 9,000  Level Washington Center
Wed 08:33:02 PM 36.4081 -79.5381 27° Northeast 250 288 9,000  Level Washington Center
Wed 08:34:03 PM 36.4678 -79.4997 25° Northeast 245 282 9,000  Level Washington Center
Wed 08:35:04 PM 36.5294 -79.4642 29° Northeast 245 282 9,000  Level Washington Center
Wed 08:36:02 PM 36.5828 -79.4281 24° Northeast 245 282 9,000  Level Washington Center
Wed 08:37:03 PM 36.6467 -79.3922 25° Northeast 245 282 9,000  Level Washington Center
Wed 08:38:04 PM 36.7083 -79.3564 27° Northeast 240 276 9,000  Level Washington Center
Wed 08:39:02 PM 36.7678 -79.3178 24° Northeast 240 276 9,000  Level Washington Center
Wed 08:40:04 PM 36.8378 -79.2797 28° Northeast 246 283 9,000  Level Washington Center
Wed 08:41:02 PM 36.8953 -79.2408 25° Northeast 240 276 9,000  Level Washington Center
Wed 08:42:03 PM 36.9569 -79.2047 26° Northeast 240 276 9,000  Level Washington Center
Wed 08:43:03 PM 37.0122 -79.1708 25° Northeast 240 276 9,000  Level Washington Center
Wed 08:44:04 PM 37.0739 -79.1347 31° Northeast 240 276 9,000  Level Washington Center
Wed 08:45:04 PM 37.1336 -79.0906 24° Northeast 240 276 9,000  Level Washington Center
Wed 08:46:04 PM 37.2014 -79.0519 27° Northeast 246 283 9,000  Level Washington Center
Wed 08:47:02 PM 37.2631 -79.0131 28° Northeast 246 283 9,000  Level Washington Center
Wed 08:48:02 PM 37.3225 -78.9739 North 246 283 9,000  Level Washington Center
Wed 08:51:21 PM 37.5500 -78.9667 358° North 243 280 9,000  Level Potomac TRACON
Wed 08:56:18 PM 37.8833 -78.9833 11° North 252 290 9,000  Level Potomac TRACON
Wed 08:57:18 PM 37.9500 -78.9667 21° North 248 285 9,000 -149 Level Potomac TRACON
Wed 08:58:19 PM 38.0167 -78.9333 31° Northeast 245 282 8,700 -645 Descending Potomac TRACON
Wed 08:59:19 PM 38.0833 -78.8833 46° Northeast 264 304 7,700 -992 Descending Potomac TRACON
Wed 09:00:20 PM 38.1333 -78.8167 38° Northeast 263 303 6,700 -843 Descending Potomac TRACON
Wed 09:01:20 PM 38.1833 -78.7667 30° Northeast 256 295 6,000 -694 Descending Potomac TRACON
Wed 09:02:21 PM 38.2500 -78.7167 50° Northeast 247 284 5,300 -517 Descending Potomac TRACON
Wed 09:03:16 PM 38.2833 -78.6667 57° Northeast 238 274 5,000 -157 Descending Potomac TRACON
Wed 09:04:16 PM 38.3167 -78.6000 72° East 208 239 5,000  Level Potomac TRACON
Wed 09:05:17 PM 38.3333 -78.5333 90° East 184 212 5,000  Level Potomac TRACON
Wed 09:06:17 PM 38.3333 -78.4833 90° East 172 198 5,000  Level Potomac TRACON
Wed 09:07:17 PM 38.3333 -78.4167 142° Southeast 169 194 5,000 -595 Level Potomac TRACON
Wed 09:08:18 PM 38.3000 -78.3833 142° Southeast 171 197 3,800 -1,180 Descending Potomac TRACON

Login

Don't have an account? Register now (free) for customized features, flight alerts, and more!